ARG1547 SACO-SABE
Flight info
| Callsign | ARG1547 |
|---|---|
| Flight time | 0h 58m |
| Altitude | 35000 |
| Route | SACO/05 UTRAX UW24 SNT SNT9R |
| Aircraft | B738/M-SDE2E3FGHIRWXY/LB1 |
Departure
| Time | 2026-05-03 21:22 |
|---|---|
| Airport | Ingeniero Aeronáutico Ambrosio L.V. Taravella International Airport (SACO) |
Arrival
| Time | 2026-05-03 22:20 |
|---|---|
| Airport | Aeroparque Jorge Newbery (SABE) |
| Time | Latitude | Longitude | Altitude | Speed | Heading |
|---|---|---|---|---|---|
| 2026-05-03 20:54 | -31.31513 | -64.21159 | 1612 ft | 0 kts | 267° |
| 2026-05-03 21:11 | -31.31513 | -64.21158 | 1612 ft | 1 kts | 267° |
| 2026-05-03 21:11 | -31.31512 | -64.21139 | 1620 ft | 3 kts | 264° |
| 2026-05-03 21:11 | -31.31509 | -64.21116 | 1618 ft | 3 kts | 256° |
| 2026-05-03 21:12 | -31.31502 | -64.21094 | 1618 ft | 3 kts | 234° |
| 2026-05-03 21:12 | -31.31491 | -64.21082 | 1622 ft | 2 kts | 188° |
| 2026-05-03 21:12 | -31.31480 | -64.21081 | 1618 ft | 2 kts | 174° |
| 2026-05-03 21:12 | -31.31469 | -64.21083 | 1616 ft | 0 kts | 138° |
| 2026-05-03 21:14 | -31.31480 | -64.21078 | 1619 ft | 6 kts | 163° |
| 2026-05-03 21:14 | -31.31536 | -64.21082 | 1613 ft | 9 kts | 197° |
| 2026-05-03 21:15 | -31.31592 | -64.21102 | 1613 ft | 8 kts | 183° |
| 2026-05-03 21:15 | -31.31647 | -64.21102 | 1619 ft | 8 kts | 180° |
| 2026-05-03 21:15 | -31.31700 | -64.21101 | 1614 ft | 8 kts | 175° |
| 2026-05-03 21:15 | -31.31749 | -64.21067 | 1612 ft | 10 kts | 141° |
| 2026-05-03 21:16 | -31.31817 | -64.21029 | 1615 ft | 11 kts | 175° |
| 2026-05-03 21:16 | -31.31895 | -64.21028 | 1618 ft | 11 kts | 180° |
| 2026-05-03 21:16 | -31.31972 | -64.21027 | 1617 ft | 11 kts | 179° |
| 2026-05-03 21:16 | -31.32061 | -64.21026 | 1614 ft | 14 kts | 179° |
| 2026-05-03 21:17 | -31.32161 | -64.21024 | 1616 ft | 14 kts | 179° |
| 2026-05-03 21:17 | -31.32225 | -64.21023 | 1618 ft | 14 kts | 179° |
| 2026-05-03 21:17 | -31.32342 | -64.21020 | 1614 ft | 10 kts | 178° |
| 2026-05-03 21:17 | -31.32398 | -64.21008 | 1614 ft | 3 kts | 148° |
| 2026-05-03 21:18 | -31.32399 | -64.21007 | 1614 ft | 0 kts | 146° |
| 2026-05-03 21:20 | -31.32413 | -64.20992 | 1616 ft | 8 kts | 135° |
| 2026-05-03 21:20 | -31.32436 | -64.20918 | 1619 ft | 12 kts | 86° |
| 2026-05-03 21:21 | -31.32391 | -64.20830 | 1617 ft | 15 kts | 45° |
| 2026-05-03 21:21 | -31.32313 | -64.20742 | 1614 ft | 13 kts | 43° |
| 2026-05-03 21:21 | -31.32292 | -64.20719 | 1615 ft | 0 kts | 44° |
| 2026-05-03 21:21 | -31.32285 | -64.20711 | 1613 ft | 11 kts | 44° |
| 2026-05-03 21:22 | -31.32157 | -64.20566 | 1621 ft | 65 kts | 44° |
| 2026-05-03 21:22 | -31.31665 | -64.20011 | 1616 ft | 132 kts | 44° |
| 2026-05-03 21:22 | -31.30973 | -64.19105 | 2092 ft | 152 kts | 57° |
| 2026-05-03 21:22 | -31.30736 | -64.17866 | 2868 ft | 174 kts | 95° |
| 2026-05-03 21:23 | -31.31412 | -64.16619 | 3489 ft | 200 kts | 130° |
| 2026-05-03 21:23 | -31.32473 | -64.15381 | 3780 ft | 226 kts | 130° |
| 2026-05-03 21:23 | -31.33638 | -64.14009 | 3961 ft | 251 kts | 131° |
| 2026-05-03 21:23 | -31.34749 | -64.12362 | 4209 ft | 265 kts | 108° |
| 2026-05-03 21:24 | -31.35021 | -64.10222 | 4531 ft | 272 kts | 83° |
| 2026-05-03 21:24 | -31.34967 | -64.07954 | 5158 ft | 282 kts | 83° |
| 2026-05-03 21:24 | -31.34903 | -64.05652 | 6063 ft | 283 kts | 83° |
| 2026-05-03 21:24 | -31.34823 | -64.03340 | 6815 ft | 288 kts | 83° |
| 2026-05-03 21:25 | -31.34726 | -64.00976 | 7543 ft | 293 kts | 83° |
| 2026-05-03 21:25 | -31.34605 | -63.98575 | 8249 ft | 299 kts | 83° |
| 2026-05-03 21:25 | -31.34458 | -63.96122 | 8946 ft | 305 kts | 84° |
| 2026-05-03 21:25 | -31.34269 | -63.93624 | 9655 ft | 310 kts | 83° |
| 2026-05-03 21:26 | -31.34035 | -63.91106 | 10346 ft | 314 kts | 83° |
| 2026-05-03 21:26 | -31.34005 | -63.88478 | 10588 ft | 334 kts | 103° |
| 2026-05-03 21:26 | -31.35014 | -63.85987 | 10794 ft | 349 kts | 133° |
| 2026-05-03 21:26 | -31.36872 | -63.84130 | 11198 ft | 357 kts | 146° |
| 2026-05-03 21:27 | -31.38901 | -63.82391 | 11672 ft | 365 kts | 146° |
| 2026-05-03 21:27 | -31.40954 | -63.80622 | 12350 ft | 366 kts | 146° |
| 2026-05-03 21:27 | -31.43000 | -63.78827 | 13018 ft | 369 kts | 146° |
| 2026-05-03 21:27 | -31.45049 | -63.76995 | 13637 ft | 372 kts | 145° |
| 2026-05-03 21:28 | -31.47080 | -63.75153 | 14198 ft | 376 kts | 145° |
| 2026-05-03 21:28 | -31.49149 | -63.73255 | 14753 ft | 379 kts | 145° |
| 2026-05-03 21:28 | -31.51231 | -63.71334 | 15328 ft | 382 kts | 145° |
| 2026-05-03 21:28 | -31.53328 | -63.69392 | 15882 ft | 386 kts | 145° |
| 2026-05-03 21:29 | -31.55440 | -63.67432 | 16424 ft | 390 kts | 145° |
| 2026-05-03 21:29 | -31.57582 | -63.65443 | 16968 ft | 393 kts | 145° |
| 2026-05-03 21:29 | -31.59735 | -63.63443 | 17506 ft | 397 kts | 146° |
| 2026-05-03 21:29 | -31.61908 | -63.61423 | 18036 ft | 401 kts | 146° |
| 2026-05-03 21:30 | -31.64101 | -63.59382 | 18533 ft | 404 kts | 146° |
| 2026-05-03 21:30 | -31.66306 | -63.57331 | 19017 ft | 407 kts | 146° |
| 2026-05-03 21:30 | -31.68567 | -63.55224 | 19524 ft | 409 kts | 146° |
| 2026-05-03 21:30 | -31.70774 | -63.53167 | 20012 ft | 412 kts | 146° |
| 2026-05-03 21:31 | -31.73023 | -63.51069 | 20504 ft | 414 kts | 147° |
| 2026-05-03 21:31 | -31.75288 | -63.48956 | 21005 ft | 417 kts | 147° |
| 2026-05-03 21:31 | -31.77564 | -63.46830 | 21482 ft | 420 kts | 147° |
| 2026-05-03 21:31 | -31.79859 | -63.44685 | 21956 ft | 422 kts | 147° |
| 2026-05-03 21:32 | -31.82167 | -63.42527 | 22431 ft | 425 kts | 147° |
| 2026-05-03 21:32 | -31.84483 | -63.40360 | 22883 ft | 428 kts | 147° |
| 2026-05-03 21:32 | -31.86813 | -63.38179 | 23344 ft | 430 kts | 147° |
| 2026-05-03 21:32 | -31.89089 | -63.35828 | 23748 ft | 439 kts | 139° |
| 2026-05-03 21:33 | -31.91088 | -63.33077 | 24123 ft | 445 kts | 134° |
| 2026-05-03 21:33 | -31.93022 | -63.30197 | 24493 ft | 448 kts | 133° |
| 2026-05-03 21:33 | -31.94940 | -63.27284 | 24861 ft | 451 kts | 133° |
| 2026-05-03 21:33 | -31.96861 | -63.24360 | 25225 ft | 453 kts | 133° |
| 2026-05-03 21:34 | -31.98810 | -63.21409 | 25587 ft | 456 kts | 134° |
| 2026-05-03 21:34 | -32.00772 | -63.18458 | 25937 ft | 458 kts | 134° |
| 2026-05-03 21:34 | -32.02751 | -63.15494 | 26286 ft | 460 kts | 134° |
| 2026-05-03 21:34 | -32.04721 | -63.12552 | 26634 ft | 463 kts | 134° |
| 2026-05-03 21:35 | -32.06718 | -63.09573 | 26968 ft | 465 kts | 134° |
| 2026-05-03 21:35 | -32.08730 | -63.06573 | 27292 ft | 467 kts | 134° |
| 2026-05-03 21:35 | -32.10753 | -63.03554 | 27624 ft | 470 kts | 134° |
| 2026-05-03 21:35 | -32.12783 | -63.00520 | 27952 ft | 472 kts | 134° |
| 2026-05-03 21:36 | -32.14826 | -62.97466 | 28263 ft | 474 kts | 134° |
| 2026-05-03 21:36 | -32.16893 | -62.94371 | 28578 ft | 476 kts | 134° |
| 2026-05-03 21:36 | -32.18953 | -62.91284 | 28882 ft | 478 kts | 134° |
| 2026-05-03 21:36 | -32.21013 | -62.88194 | 29190 ft | 480 kts | 134° |
| 2026-05-03 21:37 | -32.23084 | -62.85087 | 29490 ft | 482 kts | 134° |
| 2026-05-03 21:37 | -32.25157 | -62.81972 | 29784 ft | 484 kts | 134° |
| 2026-05-03 21:37 | -32.27247 | -62.78829 | 30068 ft | 486 kts | 134° |
| 2026-05-03 21:37 | -32.29340 | -62.75679 | 30310 ft | 488 kts | 134° |
| 2026-05-03 21:38 | -32.31431 | -62.72530 | 30628 ft | 487 kts | 134° |
| 2026-05-03 21:38 | -32.33493 | -62.69419 | 31003 ft | 485 kts | 134° |
| 2026-05-03 21:38 | -32.35569 | -62.66283 | 31367 ft | 483 kts | 134° |
| 2026-05-03 21:38 | -32.37641 | -62.63154 | 31677 ft | 483 kts | 134° |
| 2026-05-03 21:39 | -32.39715 | -62.60022 | 31962 ft | 483 kts | 134° |
| 2026-05-03 21:39 | -32.41784 | -62.56894 | 32278 ft | 483 kts | 134° |
| 2026-05-03 21:39 | -32.43851 | -62.53765 | 32614 ft | 481 kts | 134° |
| 2026-05-03 21:39 | -32.45911 | -62.50644 | 32934 ft | 480 kts | 135° |
| 2026-05-03 21:40 | -32.47966 | -62.47529 | 33226 ft | 480 kts | 135° |
| 2026-05-03 21:40 | -32.50036 | -62.44389 | 33504 ft | 480 kts | 135° |
| 2026-05-03 21:40 | -32.52077 | -62.41289 | 33824 ft | 479 kts | 135° |
| 2026-05-03 21:40 | -32.54131 | -62.38168 | 34114 ft | 478 kts | 135° |
| 2026-05-03 21:41 | -32.56169 | -62.35067 | 34360 ft | 477 kts | 135° |
| 2026-05-03 21:41 | -32.58215 | -62.31954 | 34572 ft | 477 kts | 135° |
| 2026-05-03 21:41 | -32.60257 | -62.28842 | 34806 ft | 477 kts | 135° |
| 2026-05-03 21:41 | -32.62292 | -62.25739 | 35010 ft | 477 kts | 135° |
| 2026-05-03 21:42 | -32.66387 | -62.19487 | 35008 ft | 479 kts | 135° |
| 2026-05-03 21:42 | -32.70414 | -62.13221 | 35004 ft | 477 kts | 133° |
| 2026-05-03 21:43 | -32.74198 | -62.06742 | 35001 ft | 475 kts | 131° |
| 2026-05-03 21:43 | -32.77880 | -62.00311 | 35016 ft | 473 kts | 131° |
| 2026-05-03 21:44 | -32.81634 | -61.93820 | 35008 ft | 472 kts | 131° |
| 2026-05-03 21:44 | -32.85365 | -61.87413 | 35016 ft | 472 kts | 131° |
| 2026-05-03 21:45 | -32.89114 | -61.80974 | 35020 ft | 473 kts | 131° |
| 2026-05-03 21:45 | -32.92869 | -61.74513 | 35026 ft | 475 kts | 131° |
| 2026-05-03 21:46 | -32.96628 | -61.68030 | 35023 ft | 477 kts | 131° |
| 2026-05-03 21:46 | -33.00399 | -61.61511 | 35018 ft | 479 kts | 131° |
| 2026-05-03 21:47 | -33.04191 | -61.54946 | 35021 ft | 480 kts | 131° |
| 2026-05-03 21:47 | -33.07976 | -61.48381 | 35017 ft | 480 kts | 131° |
| 2026-05-03 21:48 | -33.11762 | -61.41802 | 35014 ft | 480 kts | 131° |
| 2026-05-03 21:48 | -33.15534 | -61.35236 | 35020 ft | 480 kts | 131° |
| 2026-05-03 21:49 | -33.19306 | -61.28658 | 35016 ft | 479 kts | 131° |
| 2026-05-03 21:49 | -33.23060 | -61.22101 | 35019 ft | 478 kts | 131° |
| 2026-05-03 21:50 | -33.26807 | -61.15546 | 35018 ft | 477 kts | 131° |
| 2026-05-03 21:50 | -33.30532 | -61.08996 | 35025 ft | 476 kts | 131° |
| 2026-05-03 21:51 | -33.34223 | -61.02439 | 35026 ft | 475 kts | 131° |
| 2026-05-03 21:51 | -33.37918 | -60.95871 | 35028 ft | 475 kts | 131° |
| 2026-05-03 21:52 | -33.41603 | -60.89317 | 35028 ft | 474 kts | 131° |
| 2026-05-03 21:52 | -33.45284 | -60.82754 | 35030 ft | 474 kts | 130° |
| 2026-05-03 21:53 | -33.48960 | -60.76191 | 35031 ft | 474 kts | 131° |
| 2026-05-03 21:53 | -33.52604 | -60.69670 | 35034 ft | 474 kts | 130° |
| 2026-05-03 21:54 | -33.56280 | -60.63082 | 34952 ft | 476 kts | 130° |
| 2026-05-03 21:54 | -33.58124 | -60.59776 | 34586 ft | 477 kts | 130° |
| 2026-05-03 21:54 | -33.59954 | -60.56482 | 34190 ft | 472 kts | 130° |
| 2026-05-03 21:55 | -33.61770 | -60.53211 | 33747 ft | 468 kts | 130° |
| 2026-05-03 21:55 | -33.63563 | -60.49979 | 33293 ft | 464 kts | 130° |
| 2026-05-03 21:55 | -33.65342 | -60.46773 | 32869 ft | 460 kts | 130° |
| 2026-05-03 21:55 | -33.66544 | -60.44606 | 32579 ft | 457 kts | 130° |
| 2026-05-03 21:56 | -33.68292 | -60.41452 | 32175 ft | 453 kts | 130° |
| 2026-05-03 21:56 | -33.70011 | -60.38350 | 31770 ft | 450 kts | 130° |
| 2026-05-03 21:56 | -33.71760 | -60.35190 | 31362 ft | 447 kts | 130° |
| 2026-05-03 21:56 | -33.73477 | -60.32087 | 30960 ft | 443 kts | 130° |
| 2026-05-03 21:57 | -33.75178 | -60.29008 | 30559 ft | 441 kts | 130° |
| 2026-05-03 21:57 | -33.76867 | -60.25949 | 30161 ft | 438 kts | 130° |
| 2026-05-03 21:57 | -33.78523 | -60.22947 | 29719 ft | 436 kts | 130° |
| 2026-05-03 21:57 | -33.80211 | -60.19885 | 29267 ft | 433 kts | 130° |
| 2026-05-03 21:58 | -33.81872 | -60.16869 | 28835 ft | 430 kts | 130° |
| 2026-05-03 21:58 | -33.83519 | -60.13875 | 28417 ft | 428 kts | 129° |
| 2026-05-03 21:58 | -33.85160 | -60.10903 | 28072 ft | 423 kts | 130° |
| 2026-05-03 21:58 | -33.86794 | -60.07972 | 27695 ft | 420 kts | 130° |
| 2026-05-03 21:59 | -33.88417 | -60.05074 | 27293 ft | 418 kts | 130° |
| 2026-05-03 21:59 | -33.90039 | -60.02178 | 26901 ft | 416 kts | 130° |
| 2026-05-03 21:59 | -33.91660 | -59.99280 | 26505 ft | 415 kts | 130° |
| 2026-05-03 21:59 | -33.93269 | -59.96400 | 26102 ft | 413 kts | 129° |
| 2026-05-03 22:00 | -33.94866 | -59.93536 | 25705 ft | 412 kts | 129° |
| 2026-05-03 22:00 | -33.96462 | -59.90670 | 25303 ft | 411 kts | 129° |
| 2026-05-03 22:00 | -33.98057 | -59.87802 | 24888 ft | 411 kts | 129° |
| 2026-05-03 22:00 | -33.99650 | -59.84937 | 24476 ft | 411 kts | 129° |
| 2026-05-03 22:01 | -34.01234 | -59.82085 | 24071 ft | 411 kts | 129° |
| 2026-05-03 22:01 | -34.02803 | -59.79257 | 23664 ft | 411 kts | 129° |
| 2026-05-03 22:01 | -34.04391 | -59.76391 | 23206 ft | 411 kts | 128° |
| 2026-05-03 22:01 | -34.05989 | -59.73505 | 22776 ft | 409 kts | 128° |
| 2026-05-03 22:02 | -34.07550 | -59.70683 | 22372 ft | 407 kts | 128° |
| 2026-05-03 22:02 | -34.09119 | -59.67844 | 21968 ft | 405 kts | 128° |
| 2026-05-03 22:02 | -34.10625 | -59.64973 | 21397 ft | 410 kts | 124° |
| 2026-05-03 22:02 | -34.12023 | -59.61903 | 20919 ft | 411 kts | 122° |
| 2026-05-03 22:03 | -34.13339 | -59.58844 | 20485 ft | 410 kts | 121° |
| 2026-05-03 22:03 | -34.14628 | -59.55801 | 20102 ft | 408 kts | 121° |
| 2026-05-03 22:03 | -34.15934 | -59.52724 | 19699 ft | 406 kts | 121° |
| 2026-05-03 22:03 | -34.17225 | -59.49708 | 19283 ft | 405 kts | 121° |
| 2026-05-03 22:04 | -34.18530 | -59.46682 | 18887 ft | 403 kts | 121° |
| 2026-05-03 22:04 | -34.19825 | -59.43694 | 18475 ft | 402 kts | 121° |
| 2026-05-03 22:04 | -34.21124 | -59.40704 | 18043 ft | 401 kts | 121° |
| 2026-05-03 22:04 | -34.22417 | -59.37732 | 17610 ft | 399 kts | 121° |
| 2026-05-03 22:05 | -34.23723 | -59.34729 | 17201 ft | 396 kts | 121° |
| 2026-05-03 22:05 | -34.25002 | -59.31789 | 16813 ft | 393 kts | 121° |
| 2026-05-03 22:05 | -34.26269 | -59.28871 | 16417 ft | 391 kts | 121° |
| 2026-05-03 22:05 | -34.27545 | -59.25931 | 16027 ft | 388 kts | 120° |
| 2026-05-03 22:06 | -34.28791 | -59.23055 | 15642 ft | 386 kts | 120° |
| 2026-05-03 22:06 | -34.30033 | -59.20188 | 15267 ft | 385 kts | 120° |
| 2026-05-03 22:06 | -34.31278 | -59.17312 | 14877 ft | 383 kts | 120° |
| 2026-05-03 22:06 | -34.32494 | -59.14500 | 14498 ft | 381 kts | 120° |
| 2026-05-03 22:07 | -34.33739 | -59.11619 | 14102 ft | 380 kts | 120° |
| 2026-05-03 22:07 | -34.34963 | -59.08785 | 13701 ft | 379 kts | 120° |
| 2026-05-03 22:07 | -34.36179 | -59.05964 | 13283 ft | 377 kts | 119° |
| 2026-05-03 22:07 | -34.37395 | -59.03141 | 13069 ft | 368 kts | 119° |
| 2026-05-03 22:08 | -34.38547 | -59.00461 | 13054 ft | 353 kts | 120° |
| 2026-05-03 22:08 | -34.39664 | -58.97862 | 12992 ft | 338 kts | 120° |
| 2026-05-03 22:08 | -34.40742 | -58.95352 | 12359 ft | 339 kts | 119° |
| 2026-05-03 22:08 | -34.41766 | -58.92971 | 11964 ft | 332 kts | 119° |
| 2026-05-03 22:09 | -34.42821 | -58.90516 | 11595 ft | 325 kts | 119° |
| 2026-05-03 22:09 | -34.43831 | -58.88163 | 11246 ft | 318 kts | 119° |
| 2026-05-03 22:09 | -34.44841 | -58.85808 | 10897 ft | 312 kts | 119° |
| 2026-05-03 22:10 | -34.46827 | -58.81174 | 10395 ft | 307 kts | 119° |
| 2026-05-03 22:10 | -34.47820 | -58.78854 | 10252 ft | 310 kts | 119° |
| 2026-05-03 22:10 | -34.48806 | -58.76551 | 10104 ft | 304 kts | 119° |
| 2026-05-03 22:10 | -34.49770 | -58.74293 | 9800 ft | 301 kts | 119° |
| 2026-05-03 22:11 | -34.50729 | -58.72049 | 9497 ft | 300 kts | 118° |
| 2026-05-03 22:11 | -34.51690 | -58.69797 | 9187 ft | 299 kts | 118° |
| 2026-05-03 22:11 | -34.52642 | -58.67566 | 8878 ft | 298 kts | 118° |
| 2026-05-03 22:11 | -34.53592 | -58.65336 | 8574 ft | 297 kts | 118° |
| 2026-05-03 22:12 | -34.54538 | -58.63115 | 8276 ft | 296 kts | 118° |
| 2026-05-03 22:12 | -34.55485 | -58.60890 | 7921 ft | 298 kts | 118° |
| 2026-05-03 22:12 | -34.56437 | -58.58652 | 7594 ft | 298 kts | 118° |
| 2026-05-03 22:12 | -34.57382 | -58.56430 | 7287 ft | 294 kts | 118° |
| 2026-05-03 22:13 | -34.58309 | -58.54248 | 6978 ft | 287 kts | 118° |
| 2026-05-03 22:13 | -34.59208 | -58.52129 | 6685 ft | 280 kts | 118° |
| 2026-05-03 22:13 | -34.60102 | -58.50020 | 6382 ft | 273 kts | 118° |
| 2026-05-03 22:13 | -34.60946 | -58.48031 | 6088 ft | 268 kts | 117° |
| 2026-05-03 22:14 | -34.61806 | -58.46002 | 5805 ft | 261 kts | 117° |
| 2026-05-03 22:14 | -34.62627 | -58.44062 | 5541 ft | 254 kts | 117° |
| 2026-05-03 22:14 | -34.63432 | -58.42162 | 5290 ft | 247 kts | 117° |
| 2026-05-03 22:14 | -34.64207 | -58.40330 | 5042 ft | 240 kts | 117° |
| 2026-05-03 22:15 | -34.64962 | -58.38544 | 4803 ft | 233 kts | 117° |
| 2026-05-03 22:15 | -34.65692 | -58.36818 | 4570 ft | 226 kts | 117° |
| 2026-05-03 22:15 | -34.66394 | -58.35155 | 4442 ft | 214 kts | 116° |
| 2026-05-03 22:15 | -34.67054 | -58.33594 | 4239 ft | 207 kts | 116° |
| 2026-05-03 22:16 | -34.67538 | -58.31895 | 3460 ft | 221 kts | 85° |
| 2026-05-03 22:16 | -34.67015 | -58.30204 | 2765 ft | 212 kts | 41° |
| 2026-05-03 22:16 | -34.65767 | -58.29489 | 2216 ft | 194 kts | 355° |
| 2026-05-03 22:16 | -34.64606 | -58.29883 | 2318 ft | 158 kts | 341° |
| 2026-05-03 22:17 | -34.63649 | -58.30380 | 2343 ft | 147 kts | 322° |
| 2026-05-03 22:17 | -34.62951 | -58.31171 | 2328 ft | 132 kts | 333° |
| 2026-05-03 22:17 | -34.62092 | -58.31712 | 1749 ft | 140 kts | 331° |
| 2026-05-03 22:17 | -34.61325 | -58.32395 | 1386 ft | 134 kts | 322° |
| 2026-05-03 22:18 | -34.60640 | -58.33231 | 1258 ft | 145 kts | 311° |
| 2026-05-03 22:18 | -34.60053 | -58.34194 | 1180 ft | 142 kts | 309° |
| 2026-05-03 22:18 | -34.59510 | -58.35195 | 1049 ft | 140 kts | 308° |
| 2026-05-03 22:18 | -34.58948 | -58.36147 | 864 ft | 139 kts | 310° |
| 2026-05-03 22:19 | -34.58403 | -58.37146 | 701 ft | 143 kts | 306° |
| 2026-05-03 22:19 | -34.57867 | -58.38144 | 603 ft | 139 kts | 310° |
| 2026-05-03 22:19 | -34.57326 | -58.39051 | 383 ft | 142 kts | 303° |
| 2026-05-03 22:19 | -34.56780 | -58.40037 | 228 ft | 141 kts | 307° |
| 2026-05-03 22:20 | -34.56239 | -58.41015 | 32 ft | 136 kts | 307° |
| 2026-05-03 22:20 | -34.55907 | -58.41608 | 26 ft | 119 kts | 306° |
| 2026-05-03 22:20 | -34.55551 | -58.42243 | 26 ft | 61 kts | 304° |
| 2026-05-03 22:20 | -34.55425 | -58.42467 | 28 ft | 13 kts | 306° |
| 2026-05-03 22:21 | -34.55369 | -58.42488 | 24 ft | 9 kts | 58° |
| 2026-05-03 22:21 | -34.55366 | -58.42417 | 24 ft | 8 kts | 98° |
| 2026-05-03 22:21 | -34.55386 | -58.42352 | 25 ft | 8 kts | 123° |
| 2026-05-03 22:21 | -34.55419 | -58.42295 | 27 ft | 8 kts | 126° |
| 2026-05-03 22:22 | -34.55452 | -58.42244 | 27 ft | 8 kts | 128° |
| 2026-05-03 22:22 | -34.55486 | -58.42191 | 26 ft | 9 kts | 127° |
| 2026-05-03 22:22 | -34.55545 | -58.42094 | 27 ft | 20 kts | 127° |
| 2026-05-03 22:22 | -34.55633 | -58.41943 | 25 ft | 22 kts | 123° |
| 2026-05-03 22:23 | -34.55614 | -58.41818 | 26 ft | 13 kts | 82° |
| 2026-05-03 22:23 | -34.55635 | -58.41747 | 28 ft | 4 kts | 94° |
| 2026-05-03 22:23 | -34.55614 | -58.41728 | 26 ft | 4 kts | 37° |
| 2026-05-03 22:23 | -34.55591 | -58.41709 | 27 ft | 5 kts | 34° |
| 2026-05-03 22:24 | -34.55562 | -58.41685 | 26 ft | 6 kts | 33° |
| 2026-05-03 22:24 | -34.55551 | -58.41677 | 24 ft | 0 kts | 33° |